Time;durP1;ratioP1;P1;durP2;ratioP2;P2;SDS_P1;SDS_P2;PMS_P1;PMS_P2;Temp;Humidity;BMP_temperature;BMP_pressure;BME280_temperature;BME280_humidity;BME280_pressure;Samples;Min_cycle;Max_cycle;Signal;HPM_P1;HPM_P2
2022/03/01 00:01:55;;;;;;;6.47;5.57;;;18.80;33.20;;;;;;5057460;28;20013;-44
2022/03/01 00:04:21;;;;;;;7.65;6.05;;;18.80;33.20;;;;;;5057326;28;20108;-45
2022/03/01 00:06:47;;;;;;;8.25;6.30;;;18.80;33.30;;;;;;5058131;28;20028;-41
2022/03/01 00:09:12;;;;;;;6.97;5.97;;;18.80;33.20;;;;;;5057085;28;20036;-40
2022/03/01 00:11:38;;;;;;;7.63;5.47;;;18.70;33.20;;;;;;5055787;28;20092;-40
2022/03/01 00:14:08;;;;;;;8.43;5.93;;;18.80;33.20;;;;;;5052893;28;20009;-39
2022/03/01 00:16:34;;;;;;;6.63;5.60;;;18.70;33.20;;;;;;5053279;28;20021;-39
2022/03/01 00:19:00;;;;;;;8.13;6.18;;;18.70;33.20;;;;;;5053026;28;20021;-40
2022/03/01 00:21:28;;;;;;;7.53;5.80;;;18.70;33.30;;;;;;5052737;28;20067;-40
2022/03/01 00:23:53;;;;;;;7.03;5.72;;;18.70;33.30;;;;;;5053105;28;20075;-39
2022/03/01 00:26:19;;;;;;;7.38;6.28;;;18.70;33.20;;;;;;5060181;28;20021;-41
2022/03/01 00:28:45;;;;;;;7.65;5.70;;;18.70;33.20;;;;;;5060934;28;20013;-42
2022/03/01 00:31:11;;;;;;;7.63;5.53;;;18.60;33.20;;;;;;5062001;28;20028;-43
2022/03/01 00:33:37;;;;;;;9.18;6.10;;;18.60;33.20;;;;;;5061943;28;20013;-42
2022/03/01 00:36:06;;;;;;;11.57;6.15;;;18.60;33.20;;;;;;5061471;28;20025;-41
2022/03/01 00:38:31;;;;;;;8.05;6.15;;;18.70;33.30;;;;;;5061871;28;20070;-41
2022/03/01 00:40:57;;;;;;;7.13;5.80;;;18.60;33.30;;;;;;5059075;28;20107;-39
2022/03/01 00:43:23;;;;;;;8.23;6.05;;;18.60;33.40;;;;;;5057598;28;20060;-40
2022/03/01 00:45:49;;;;;;;6.63;5.53;;;18.60;33.40;;;;;;5058766;28;20368;-41
2022/03/01 00:48:15;;;;;;;7.57;5.82;;;18.60;33.40;;;;;;5059184;28;20498;-39
2022/03/01 00:50:41;;;;;;;7.15;5.72;;;18.60;33.40;;;;;;5058963;28;20021;-41
2022/03/01 00:53:07;;;;;;;7.20;5.90;;;18.60;33.50;;;;;;5057490;28;20458;-40
2022/03/01 00:55:33;;;;;;;7.00;5.80;;;18.60;33.50;;;;;;5059209;28;20017;-40
2022/03/01 00:57:59;;;;;;;6.95;5.35;;;18.60;33.50;;;;;;5061529;28;20025;-42
2022/03/01 01:00:26;;;;;;;7.30;5.90;;;18.50;33.50;;;;;;5061699;28;20021;-43
2022/03/01 01:02:51;;;;;;;6.95;5.72;;;18.50;33.50;;;;;;5061173;28;20021;-48
2022/03/01 01:05:18;;;;;;;8.88;5.90;;;18.50;33.50;;;;;;5061896;28;20029;-40
2022/03/01 01:07:44;;;;;;;7.20;6.05;;;18.50;33.60;;;;;;5061620;28;20017;-40
2022/03/01 01:10:10;;;;;;;6.88;5.68;;;18.50;33.60;;;;;;5060766;28;20108;-43
2022/03/01 01:12:37;;;;;;;7.60;6.32;;;18.50;33.60;;;;;;5061670;28;20009;-41
2022/03/01 01:15:03;;;;;;;6.65;5.75;;;18.50;33.60;;;;;;5060846;28;20017;-40
2022/03/01 01:17:29;;;;;;;6.00;5.40;;;18.50;33.60;;;;;;5060799;28;20060;-40
2022/03/01 01:19:55;;;;;;;7.10;5.90;;;18.50;33.60;;;;;;5060370;28;20463;-41
2022/03/01 01:22:40;;;;;;;8.13;5.97;;;18.50;33.60;;;;;;5057899;28;20037;-40
2022/03/01 01:25:17;;;;;;;7.35;5.50;;;18.50;33.60;;;;;;5058253;28;20025;-40
2022/03/01 01:27:47;;;;;;;8.00;5.97;;;18.40;33.60;;;;;;5057591;28;20472;-43
2022/03/01 01:30:14;;;;;;;;;;;18.40;33.60;;;;;;5059996;28;20025;-39
2022/03/01 01:32:40;;;;;;;7.85;5.93;;;18.40;33.70;;;;;;5059309;28;20004;-39
2022/03/01 01:35:08;;;;;;;6.97;5.80;;;18.40;33.70;;;;;;5058084;28;20471;-41
2022/03/01 01:37:33;;;;;;;6.75;5.53;;;18.40;33.70;;;;;;5058901;28;20546;-41
2022/03/01 01:39:59;;;;;;;7.50;5.63;;;18.40;33.70;;;;;;5058703;28;20013;-39
2022/03/01 01:42:25;;;;;;;7.75;5.78;;;18.40;33.70;;;;;;5055919;28;20073;-39
2022/03/01 01:44:51;;;;;;;7.75;5.60;;;18.40;33.70;;;;;;5056042;28;20088;-40
2022/03/01 01:47:17;;;;;;;7.10;5.90;;;18.40;33.70;;;;;;5054979;28;20105;-40
2022/03/01 01:49:44;;;;;;;7.38;5.85;;;18.40;33.80;;;;;;5055981;28;20013;-43
2022/03/01 01:52:10;;;;;;;6.05;5.30;;;18.30;33.70;;;;;;5055613;28;20459;-40
2022/03/01 01:54:37;;;;;;;7.00;5.45;;;18.30;33.70;;;;;;5055458;28;20017;-39
2022/03/01 01:57:13;;;;;;;7.13;5.90;;;18.30;33.70;;;;;;5055915;28;20009;-39
2022/03/01 01:59:39;;;;;;;7.60;5.70;;;18.30;33.70;;;;;;5056089;28;20017;-40
2022/03/01 02:02:05;;;;;;;6.07;5.22;;;18.40;33.70;;;;;;5054351;28;20028;-39
2022/03/01 02:04:31;;;;;;;8.23;5.80;;;18.30;33.70;;;;;;5055773;28;20052;-39
2022/03/01 02:06:57;;;;;;;7.35;5.68;;;18.30;33.80;;;;;;5055556;28;20487;-39
2022/03/01 02:09:24;;;;;;;7.47;5.90;;;18.30;33.80;;;;;;5054929;28;20099;-41
2022/03/01 02:11:49;;;;;;;6.82;5.68;;;18.30;33.80;;;;;;5055198;28;20017;-41
2022/03/01 02:14:15;;;;;;;6.68;5.55;;;18.30;33.80;;;;;;5058022;28;20017;-41
2022/03/01 02:16:41;;;;;;;6.43;5.25;;;18.30;33.80;;;;;;5058745;28;20471;-44
2022/03/01 02:19:09;;;;;;;7.25;5.60;;;18.30;33.80;;;;;;5058749;28;20024;-43
2022/03/01 02:21:36;;;;;;;7.38;5.70;;;18.30;33.90;;;;;;5059523;28;20490;-46
2022/03/01 02:24:02;;;;;;;6.03;5.00;;;18.30;33.90;;;;;;5061495;28;20455;-42
2022/03/01 02:26:30;;;;;;;7.35;5.35;;;18.20;33.80;;;;;;5057510;28;20032;-45
2022/03/01 02:28:56;;;;;;;6.88;5.60;;;18.30;33.90;;;;;;5058150;28;20033;-41
2022/03/01 02:31:23;;;;;;;6.47;5.22;;;18.30;33.90;;;;;;5057775;28;20048;-41
2022/03/01 02:33:49;;;;;;;7.55;5.40;;;18.20;33.80;;;;;;5057360;28;20021;-42
2022/03/01 02:36:15;;;;;;;7.15;5.32;;;18.20;33.90;;;;;;5057415;28;20027;-43
2022/03/01 02:38:41;;;;;;;6.22;5.60;;;18.20;33.90;;;;;;5057593;28;20025;-45
2022/03/01 02:41:08;;;;;;;7.63;5.68;;;18.20;33.90;;;;;;5058083;28;20071;-46
2022/03/01 02:43:35;;;;;;;5.80;4.93;;;18.20;33.90;;;;;;5058137;28;20049;-40
2022/03/01 02:46:06;;;;;;;7.32;5.32;;;18.20;33.90;;;;;;5057990;28;20037;-47
2022/03/01 02:48:33;;;;;;;6.88;5.30;;;18.20;34.40;;;;;;5058070;28;20021;-46
2022/03/01 02:51:00;;;;;;;7.85;5.15;;;18.20;33.90;;;;;;5057480;28;20013;-42
2022/03/01 02:53:27;;;;;;;6.60;5.53;;;18.10;33.90;;;;;;5058129;28;20051;-40
2022/03/01 02:55:53;;;;;;;6.10;5.32;;;18.20;33.90;;;;;;5058034;28;20563;-39
2022/03/01 02:58:20;;;;;;;6.28;5.30;;;18.10;33.90;;;;;;5057890;28;20027;-43
2022/03/01 03:00:45;;;;;;;6.63;5.70;;;18.10;33.90;;;;;;5057545;28;20041;-42
2022/03/01 03:03:14;;;;;;;6.97;5.15;;;18.10;34.00;;;;;;5057689;28;20048;-43
2022/03/01 03:05:41;;;;;;;6.00;5.10;;;18.20;34.00;;;;;;5058297;28;20036;-44
2022/03/01 03:08:07;;;;;;;7.45;5.30;;;18.20;34.00;;;;;;5057600;28;20009;-41
2022/03/01 03:10:33;;;;;;;6.18;5.38;;;18.10;33.90;;;;;;5058774;28;20025;-39
2022/03/01 03:13:01;;;;;;;6.22;5.20;;;18.10;33.90;;;;;;5062283;28;20009;-42
2022/03/01 03:15:27;;;;;;;5.80;4.88;;;18.10;34.00;;;;;;5061923;28;20026;-43
2022/03/01 03:17:53;;;;;;;5.93;5.00;;;18.10;34.00;;;;;;5061722;28;20017;-45
2022/03/01 03:20:19;;;;;;;6.40;5.13;;;18.10;34.00;;;;;;5061801;28;20017;-42
2022/03/01 03:22:46;;;;;;;6.63;5.07;;;18.10;34.00;;;;;;5060529;28;20028;-42
2022/03/01 03:25:12;;;;;;;6.55;5.10;;;18.10;34.00;;;;;;5060307;28;20025;-40
2022/03/01 03:27:38;;;;;;;7.45;5.40;;;18.10;34.00;;;;;;5056211;28;20021;-40
2022/03/01 03:30:05;;;;;;;7.20;5.30;;;18.00;34.00;;;;;;5055739;28;20017;-42
2022/03/01 03:32:31;;;;;;;5.90;5.00;;;18.10;34.10;;;;;;5056419;28;20032;-44
2022/03/01 03:34:57;;;;;;;6.07;5.15;;;18.00;34.00;;;;;;5055497;28;20009;-40
2022/03/01 03:37:24;;;;;;;6.18;5.20;;;18.10;34.10;;;;;;5056114;28;20029;-40
2022/03/01 03:39:49;;;;;;;7.32;5.45;;;18.00;34.10;;;;;;5056197;28;20029;-42
2022/03/01 03:42:15;;;;;;;5.38;4.82;;;18.00;34.10;;;;;;5057806;28;20565;-45
2022/03/01 03:44:42;;;;;;;7.10;5.50;;;18.00;34.10;;;;;;5058258;28;20060;-45
2022/03/01 03:47:09;;;;;;;5.78;4.80;;;18.00;34.10;;;;;;5057997;28;20020;-43
2022/03/01 03:49:35;;;;;;;6.78;4.93;;;18.00;34.70;;;;;;5058149;28;20021;-42
2022/03/01 03:52:02;;;;;;;7.72;5.97;;;18.00;34.10;;;;;;5057033;28;20021;-43
2022/03/01 03:54:28;;;;;;;6.43;4.95;;;18.00;34.10;;;;;;5056838;28;20104;-42
2022/03/01 03:56:54;;;;;;;6.18;4.93;;;18.00;34.10;;;;;;5056553;28;20017;-39
2022/03/01 03:59:20;;;;;;;6.47;4.97;;;18.00;34.20;;;;;;5055613;28;20514;-41
2022/03/01 04:01:47;;;;;;;6.20;4.93;;;18.00;34.10;;;;;;5056618;28;20017;-40
2022/03/01 04:04:13;;;;;;;6.32;5.20;;;18.00;34.10;;;;;;5056026;28;20112;-42
2022/03/01 04:06:39;;;;;;;6.15;4.65;;;18.00;34.10;;;;;;5056237;28;20055;-40
2022/03/01 04:09:05;;;;;;;5.93;4.90;;;17.90;34.10;;;;;;5056207;28;20013;-39
2022/03/01 04:11:31;;;;;;;6.10;5.03;;;17.90;34.10;;;;;;5056839;28;20017;-40
2022/03/01 04:13:58;;;;;;;6.25;5.28;;;18.00;34.10;;;;;;5058250;28;20080;-43
2022/03/01 04:16:24;;;;;;;6.78;5.13;;;17.90;34.10;;;;;;5055880;28;20471;-39
2022/03/01 04:18:50;;;;;;;6.55;4.82;;;17.90;34.10;;;;;;5058533;28;20017;-42
2022/03/01 04:21:16;;;;;;;6.38;4.95;;;17.90;34.10;;;;;;5057554;28;20495;-46
2022/03/01 04:23:42;;;;;;;5.88;4.63;;;17.90;34.10;;;;;;5058545;28;20037;-41
2022/03/01 04:26:08;;;;;;;6.07;4.90;;;17.90;34.10;;;;;;5058130;28;20486;-39
2022/03/01 04:28:35;;;;;;;5.75;5.00;;;17.90;34.10;;;;;;5058788;28;20088;-40
2022/03/01 04:31:01;;;;;;;6.35;4.63;;;17.90;34.10;;;;;;5058533;28;20096;-41
2022/03/01 04:33:28;;;;;;;5.72;4.53;;;17.90;34.10;;;;;;5057550;28;20479;-40
2022/03/01 04:35:54;;;;;;;5.85;4.68;;;17.90;34.10;;;;;;5059088;28;20009;-40
2022/03/01 04:38:20;;;;;;;5.70;4.30;;;17.90;34.20;;;;;;5058178;28;20046;-47
2022/03/01 04:40:46;;;;;;;5.47;4.68;;;17.90;34.20;;;;;;5059390;28;20485;-47
2022/03/01 04:43:13;;;;;;;6.13;4.78;;;17.90;34.20;;;;;;5057764;28;20053;-49
2022/03/01 04:45:39;;;;;;;5.65;4.85;;;17.90;34.20;;;;;;5060002;28;20025;-46
2022/03/01 04:48:05;;;;;;;5.10;4.55;;;17.90;34.20;;;;;;5060253;28;20017;-46
2022/03/01 04:50:33;;;;;;;5.97;4.55;;;17.90;34.20;;;;;;5058601;28;20031;-43
2022/03/01 04:52:59;;;;;;;5.82;4.50;;;17.80;34.20;;;;;;5059086;28;20033;-42
2022/03/01 04:55:25;;;;;;;5.07;4.50;;;17.80;34.20;;;;;;5056196;28;20025;-45
2022/03/01 04:57:51;;;;;;;5.60;4.60;;;17.80;34.20;;;;;;5054467;28;20037;-45
2022/03/01 05:00:17;;;;;;;6.10;4.55;;;17.80;34.20;;;;;;5054466;28;20460;-42
2022/03/01 05:02:44;;;;;;;6.00;4.90;;;17.80;34.20;;;;;;5055449;28;20009;-42
2022/03/01 05:05:11;;;;;;;6.40;4.47;;;17.80;34.30;;;;;;5056876;28;20033;-44
2022/03/01 05:07:38;;;;;;;5.47;4.68;;;17.80;34.30;;;;;;5056825;28;20017;-41
2022/03/01 05:10:05;;;;;;;5.75;4.82;;;17.80;34.30;;;;;;5055175;28;20020;-40
2022/03/01 05:12:32;;;;;;;6.28;4.93;;;17.80;34.20;;;;;;5059000;28;20024;-43
2022/03/01 05:14:59;;;;;;;5.70;4.90;;;17.80;34.20;;;;;;5059309;28;20096;-43
2022/03/01 05:17:25;;;;;;;6.10;4.75;;;17.80;34.30;;;;;;5059667;28;20486;-40
2022/03/01 05:19:51;;;;;;;6.07;4.82;;;17.80;34.30;;;;;;5059012;28;20028;-45
2022/03/01 05:22:18;;;;;;;5.25;4.72;;;17.70;34.20;;;;;;5059645;28;20017;-41
2022/03/01 05:24:44;;;;;;;5.28;4.47;;;17.80;34.30;;;;;;5058316;28;20032;-46
2022/03/01 05:27:11;;;;;;;5.53;4.50;;;17.70;34.20;;;;;;5059608;28;20032;-42
2022/03/01 05:29:37;;;;;;;5.38;4.72;;;17.70;34.30;;;;;;5059179;28;20024;-42
2022/03/01 05:32:05;;;;;;;6.25;4.80;;;17.70;34.20;;;;;;5059397;28;20021;-44
2022/03/01 05:34:31;;;;;;;6.10;4.95;;;17.70;34.20;;;;;;5059351;28;20051;-41
2022/03/01 05:36:58;;;;;;;5.53;4.50;;;17.70;34.20;;;;;;5059018;28;20017;-44
2022/03/01 05:39:24;;;;;;;6.22;4.70;;;17.70;34.80;;;;;;5059852;28;20013;-46
2022/03/01 05:41:50;;;;;;;5.82;4.68;;;17.70;34.20;;;;;;5059194;28;20045;-43
2022/03/01 05:44:16;;;;;;;6.50;4.60;;;17.70;34.20;;;;;;5060122;28;20017;-45
2022/03/01 05:46:42;;;;;;;5.68;4.72;;;17.70;34.20;;;;;;5058585;28;20025;-43
2022/03/01 05:49:08;;;;;;;5.43;4.57;;;17.70;34.20;;;;;;5059084;28;20025;-41
2022/03/01 05:51:34;;;;;;;6.80;4.72;;;17.70;34.20;;;;;;5058575;28;20472;-41
2022/03/01 05:54:00;;;;;;;5.63;4.88;;;17.70;34.20;;;;;;5058675;28;20021;-43
2022/03/01 05:56:26;;;;;;;7.85;5.30;;;17.60;34.20;;;;;;5060306;28;20017;-42
2022/03/01 05:58:53;;;;;;;6.18;4.78;;;17.60;34.20;;;;;;5061712;28;20033;-41
2022/03/01 06:01:19;;;;;;;6.70;4.80;;;17.60;34.20;;;;;;5062376;28;20017;-39
2022/03/01 06:03:46;;;;;;;5.65;4.60;;;17.60;34.20;;;;;;5060977;28;20041;-39
2022/03/01 06:06:13;;;;;;;6.15;4.60;;;17.60;34.20;;;;;;5060021;28;20029;-41
2022/03/01 06:08:39;;;;;;;7.03;5.00;;;17.60;34.20;;;;;;5060358;28;20471;-41
2022/03/01 06:11:06;;;;;;;6.35;4.72;;;17.60;34.30;;;;;;5060154;28;20024;-41
2022/03/01 06:13:32;;;;;;;6.75;4.90;;;17.60;34.20;;;;;;5059947;28;20017;-44
2022/03/01 06:15:59;;;;;;;6.03;4.82;;;17.60;34.20;;;;;;5059204;28;20028;-43
2022/03/01 06:18:25;;;;;;;5.97;4.75;;;17.60;34.30;;;;;;5060379;28;20025;-40
2022/03/01 06:20:51;;;;;;;5.90;4.68;;;17.60;34.30;;;;;;5059692;28;20021;-43
2022/03/01 06:23:17;;;;;;;6.50;4.85;;;17.60;34.30;;;;;;5056926;28;20472;-46
2022/03/01 06:25:44;;;;;;;7.43;5.25;;;17.60;34.20;;;;;;5059493;28;20055;-41
2022/03/01 06:28:10;;;;;;;5.05;4.55;;;17.60;34.30;;;;;;5058375;28;20164;-43
2022/03/01 06:30:37;;;;;;;6.30;4.90;;;17.60;34.30;;;;;;5058056;28;20036;-43
2022/03/01 06:33:03;;;;;;;7.63;4.95;;;17.60;34.30;;;;;;5058631;28;20032;-42
2022/03/01 06:35:30;;;;;;;6.30;5.47;;;17.60;34.30;;;;;;5057911;28;20017;-41
2022/03/01 06:37:56;;;;;;;6.05;4.85;;;17.60;34.40;;;;;;5058138;28;20032;-43
2022/03/01 06:40:21;;;;;;;6.65;5.32;;;17.60;34.30;;;;;;5057659;28;20075;-39
2022/03/01 06:42:48;;;;;;;6.43;5.18;;;17.60;34.40;;;;;;5058145;28;20047;-39
2022/03/01 06:45:14;;;;;;;7.55;5.47;;;17.50;34.30;;;;;;5057682;28;20029;-39
2022/03/01 06:47:39;;;;;;;6.50;5.07;;;17.60;34.30;;;;;;5056111;28;20016;-41
2022/03/01 06:50:07;;;;;;;7.28;4.82;;;17.60;34.40;;;;;;5057016;28;20105;-43
2022/03/01 06:52:34;;;;;;;6.55;5.07;;;17.60;34.40;;;;;;5055521;28;20021;-39
2022/03/01 06:55:01;;;;;;;5.63;4.55;;;17.50;34.30;;;;;;5057284;28;20013;-43
2022/03/01 06:57:27;;;;;;;6.82;4.82;;;17.50;34.40;;;;;;5058243;28;20012;-41
2022/03/01 06:59:53;;;;;;;7.22;5.28;;;17.50;34.40;;;;;;5057489;28;20022;-42
2022/03/01 07:02:19;;;;;;;6.50;5.20;;;17.50;34.40;;;;;;5058268;28;20009;-47
2022/03/01 07:04:45;;;;;;;6.88;5.00;;;17.50;34.40;;;;;;5058636;28;20039;-40
2022/03/01 07:07:11;;;;;;;7.80;5.38;;;17.50;34.40;;;;;;5057033;28;20123;-49
2022/03/01 07:09:36;;;;;;;8.05;5.75;;;17.50;34.30;;;;;;5057092;28;20013;-41
2022/03/01 07:12:03;;;;;;;7.68;5.70;;;17.50;34.30;;;;;;5057312;28;20028;-43
2022/03/01 07:14:31;;;;;;;8.23;5.88;;;17.50;34.20;;;;;;5058683;28;20483;-47
2022/03/01 07:16:57;;;;;;;7.35;5.88;;;17.50;34.20;;;;;;5057214;28;20013;-43
2022/03/01 07:19:23;;;;;;;8.52;6.05;;;17.50;34.10;;;;;;5057254;28;20494;-42
2022/03/01 07:21:49;;;;;;;7.18;5.68;;;17.50;34.20;;;;;;5039899;28;20029;-41
2022/03/01 07:24:14;;;;;;;7.55;5.82;;;17.50;34.10;;;;;;5058301;28;20084;-42
2022/03/01 07:26:40;;;;;;;8.27;6.18;;;17.50;34.10;;;;;;5056520;28;20124;-43
2022/03/01 07:29:09;;;;;;;10.05;7.00;;;17.40;34.00;;;;;;5056603;28;20018;-47
2022/03/01 07:31:35;;;;;;;10.75;7.13;;;17.40;34.00;;;;;;5057250;28;20030;-43
2022/03/01 07:34:02;;;;;;;9.13;6.40;;;17.40;34.00;;;;;;5056264;28;20017;-46
2022/03/01 07:36:27;;;;;;;11.57;6.68;;;17.40;33.90;;;;;;5054787;28;20471;-44
2022/03/01 07:38:54;;;;;;;10.05;6.43;;;17.40;33.80;;;;;;5055991;28;20498;-40
2022/03/01 07:41:20;;;;;;;15.57;7.25;;;17.40;33.80;;;;;;5056159;28;20099;-38
2022/03/01 07:43:47;;;;;;;10.25;7.05;;;17.40;33.80;;;;;;5055064;28;20073;-39
2022/03/01 07:46:14;;;;;;;9.18;6.22;;;17.50;33.80;;;;;;5056818;28;20048;-44
2022/03/01 07:48:41;;;;;;;10.10;7.90;;;17.40;33.60;;;;;;5056941;28;20029;-40
2022/03/01 07:51:07;;;;;;;14.10;7.75;;;17.50;33.60;;;;;;5056961;28;20021;-41
2022/03/01 07:53:33;;;;;;;11.48;7.68;;;17.40;33.60;;;;;;5056047;28;20048;-41
2022/03/01 07:55:58;;;;;;;11.45;8.10;;;17.50;33.60;;;;;;5037026;28;20180;-38
2022/03/01 07:58:24;;;;;;;10.95;7.85;;;17.50;33.60;;;;;;5053063;28;20029;-38
2022/03/01 08:00:50;;;;;;;11.55;7.88;;;17.50;33.60;;;;;;5052899;28;20013;-38
2022/03/01 08:03:16;;;;;;;11.00;7.53;;;17.50;33.60;;;;;;5053047;28;20047;-38
2022/03/01 08:05:42;;;;;;;10.77;8.02;;;17.40;33.50;;;;;;5051604;28;20017;-38
2022/03/01 08:08:08;;;;;;;12.43;7.93;;;17.50;33.60;;;;;;5051976;28;20099;-38
2022/03/01 08:10:34;;;;;;;11.80;7.88;;;17.40;33.50;;;;;;5052375;28;20033;-39
2022/03/01 08:12:59;;;;;;;13.13;8.13;;;17.50;33.60;;;;;;5054337;28;20013;-39
2022/03/01 08:15:26;;;;;;;12.27;8.35;;;17.50;33.50;;;;;;5054698;28;20021;-39
2022/03/01 08:17:54;;;;;;;12.40;8.18;;;17.50;33.50;;;;;;5052630;28;20039;-39
2022/03/01 08:20:20;;;;;;;12.48;7.63;;;17.50;33.50;;;;;;5053682;28;20092;-38
2022/03/01 08:22:45;;;;;;;11.95;8.10;;;17.50;33.50;;;;;;5054193;28;20108;-39
2022/03/01 08:25:14;;;;;;;11.85;7.75;;;17.60;33.50;;;;;;5054386;28;20049;-39
2022/03/01 08:27:40;;;;;;;11.27;7.72;;;17.60;33.50;;;;;;5055213;28;20031;-40
2022/03/01 08:30:06;;;;;;;11.02;7.80;;;17.50;33.50;;;;;;5054004;28;20104;-38
2022/03/01 08:32:32;;;;;;;11.98;8.13;;;17.60;33.50;;;;;;5054615;28;20029;-40
2022/03/01 08:34:58;;;;;;;12.90;8.38;;;17.50;33.40;;;;;;5054829;28;20120;-40
2022/03/01 08:37:24;;;;;;;14.35;8.40;;;17.50;33.40;;;;;;5053881;28;20017;-40
2022/03/01 08:39:50;;;;;;;10.60;7.80;;;17.60;33.40;;;;;;5036718;28;20029;-40
2022/03/01 08:42:17;;;;;;;13.23;7.70;;;17.50;33.40;;;;;;5053699;28;20044;-40
2022/03/01 08:44:44;;;;;;;16.23;8.00;;;17.60;33.40;;;;;;5053584;28;20032;-40
2022/03/01 08:47:09;;;;;;;13.23;8.07;;;17.60;33.40;;;;;;5056341;28;20033;-40
2022/03/01 08:49:35;;;;;;;14.93;7.75;;;17.50;33.50;;;;;;5057096;28;20025;-40
2022/03/01 08:52:02;;;;;;;13.82;8.15;;;17.50;33.50;;;;;;5057185;28;20013;-39
2022/03/01 08:54:28;;;;;;;11.73;7.65;;;17.50;34.10;;;;;;5057266;28;20041;-40
2022/03/01 08:56:55;;;;;;;14.68;7.53;;;17.50;34.10;;;;;;5058242;28;20083;-39
2022/03/01 08:59:22;;;;;;;16.33;7.80;;;17.50;33.50;;;;;;5059004;28;20025;-40
2022/03/01 09:01:47;;;;;;;12.90;8.13;;;17.50;33.50;;;;;;5058227;28;20017;-39
2022/03/01 09:04:14;;;;;;;11.52;7.55;;;17.50;33.50;;;;;;5058553;28;20047;-43
2022/03/01 09:06:39;;;;;;;12.57;7.50;;;17.50;33.50;;;;;;5056869;28;20037;-40
2022/03/01 09:09:06;;;;;;;13.13;7.95;;;17.50;33.50;;;;;;5058184;28;20013;-44
2022/03/01 09:11:32;;;;;;;16.05;8.13;;;17.50;33.60;;;;;;5056176;28;20013;-38
2022/03/01 09:13:57;;;;;;;19.83;8.57;;;17.50;33.60;;;;;;5055980;28;20009;-39
2022/03/01 09:16:24;;;;;;;15.85;8.57;;;17.50;33.60;;;;;;5056095;28;20048;-39
2022/03/01 09:18:49;;;;;;;16.88;7.70;;;17.50;33.60;;;;;;5055783;28;20475;-40
2022/03/01 09:21:15;;;;;;;13.38;7.43;;;17.50;33.60;;;;;;5056780;28;20025;-40
2022/03/01 09:23:42;;;;;;;14.18;8.07;;;17.40;33.60;;;;;;5056836;28;20109;-39
2022/03/01 09:26:08;;;;;;;18.58;7.25;;;17.40;33.60;;;;;;5057278;28;20123;-38
2022/03/01 09:28:34;;;;;;;14.57;7.93;;;17.40;33.70;;;;;;5056043;28;20009;-39
2022/03/01 09:31:00;;;;;;;17.02;8.07;;;17.40;33.70;;;;;;5055974;28;20062;-39
2022/03/01 09:33:26;;;;;;;14.07;7.72;;;17.50;33.70;;;;;;5055626;28;20422;-38
2022/03/01 09:35:52;;;;;;;13.10;7.72;;;17.50;33.70;;;;;;5054836;28;20582;-40
2022/03/01 09:38:18;;;;;;;19.17;8.85;;;17.50;33.70;;;;;;5037934;28;20051;-40
2022/03/01 09:40:47;;;;;;;15.68;7.72;;;17.40;33.70;;;;;;5057493;28;20488;-40
2022/03/01 09:43:14;;;;;;;13.85;7.47;;;17.40;33.70;;;;;;5059272;28;20057;-41
2022/03/01 09:45:40;;;;;;;14.48;7.18;;;17.40;33.70;;;;;;5060546;28;20036;-42
2022/03/01 09:48:06;;;;;;;14.02;7.50;;;17.40;33.70;;;;;;5060369;28;20021;-43
2022/03/01 09:50:32;;;;;;;13.70;7.68;;;17.40;33.70;;;;;;5059568;28;20018;-42
2022/03/01 09:52:58;;;;;;;18.10;7.50;;;17.40;33.70;;;;;;5060357;28;20021;-41
2022/03/01 09:55:25;;;;;;;14.35;7.45;;;17.40;33.70;;;;;;5059626;28;20025;-41
2022/03/01 09:57:51;;;;;;;13.27;7.35;;;17.40;33.70;;;;;;5057070;28;20491;-42
2022/03/01 10:00:17;;;;;;;13.77;7.82;;;17.50;33.80;;;;;;5058424;28;20037;-39
2022/03/01 10:02:44;;;;;;;15.43;7.50;;;17.40;33.70;;;;;;5059196;28;20412;-41
2022/03/01 10:05:11;;;;;;;13.30;7.50;;;17.40;33.70;;;;;;5058162;28;20114;-40
2022/03/01 10:07:42;;;;;;;14.23;7.90;;;17.40;33.70;;;;;;5058644;28;20020;-40
2022/03/01 10:10:19;;;;;;;15.13;8.00;;;17.40;33.70;;;;;;5058995;28;20040;-42
2022/03/01 10:12:52;;;;;;;12.93;7.68;;;17.40;33.70;;;;;;5059384;28;20009;-39
2022/03/01 10:15:18;;;;;;;12.95;7.65;;;17.40;33.80;;;;;;5059155;28;20024;-41
2022/03/01 10:17:45;;;;;;;12.45;7.82;;;17.40;33.80;;;;;;5058562;28;20021;-41
2022/03/01 10:20:18;;;;;;;13.88;7.60;;;17.40;33.80;;;;;;5058089;28;20040;-40
2022/03/01 10:22:51;;;;;;;12.85;7.38;;;17.30;33.80;;;;;;5057243;28;20013;-44
2022/03/01 10:25:19;;;;;;;12.50;7.40;;;17.40;33.80;;;;;;5056210;28;20021;-39
2022/03/01 10:27:47;;;;;;;12.55;7.72;;;17.40;33.80;;;;;;5057806;28;20529;-39
2022/03/01 10:30:21;;;;;;;15.90;7.80;;;17.40;33.80;;;;;;5057464;28;20456;-39
2022/03/01 10:32:46;;;;;;;13.82;7.55;;;17.40;33.80;;;;;;5057497;28;20566;-42
2022/03/01 10:35:12;;;;;;;11.93;7.35;;;17.30;33.90;;;;;;5057802;28;20028;-43
2022/03/01 10:37:39;;;;;;;15.40;7.50;;;17.40;34.00;;;;;;5056777;28;20027;-40
2022/03/01 10:40:23;;;;;;;10.77;7.40;;;17.40;34.00;;;;;;5058618;28;20019;-40
2022/03/01 10:43:07;;;;;;;17.67;6.97;;;17.40;34.00;;;;;;5056809;28;20033;-41
2022/03/01 10:45:44;;;;;;;11.43;7.65;;;17.40;34.00;;;;;;5056537;28;20043;-41
2022/03/01 10:48:31;;;;;;;13.52;7.32;;;17.40;34.10;;;;;;5056933;28;20017;-42
2022/03/01 10:51:11;;;;;;;15.25;7.43;;;17.40;34.10;;;;;;5056659;28;20017;-42
2022/03/01 10:53:39;;;;;;;14.15;7.78;;;17.30;34.10;;;;;;5056841;28;20017;-40
2022/03/01 10:56:06;;;;;;;14.88;7.78;;;17.30;34.20;;;;;;5056230;28;20017;-44
2022/03/01 10:58:32;;;;;;;12.77;7.35;;;17.30;34.30;;;;;;5054520;28;20051;-42
2022/03/01 11:00:58;;;;;;;16.65;7.90;;;17.30;34.30;;;;;;5056032;28;20021;-40
2022/03/01 11:03:25;;;;;;;15.88;7.95;;;17.30;34.30;;;;;;5056324;28;20021;-44
2022/03/01 11:05:53;;;;;;;13.52;6.75;;;17.30;34.30;;;;;;5056257;28;20087;-41
2022/03/01 11:08:19;;;;;;;13.57;7.43;;;17.40;34.40;;;;;;5055420;28;20016;-44
2022/03/01 11:10:45;;;;;;;13.23;7.80;;;17.40;34.40;;;;;;5056429;28;20412;-46
2022/03/01 11:13:11;;;;;;;15.27;7.07;;;17.40;34.40;;;;;;5058471;28;20513;-47
2022/03/01 11:16:05;;;;;;;14.68;7.60;;;17.40;34.30;;;;;;5058650;28;20021;-42
2022/03/01 11:18:40;;;;;;;13.02;7.35;;;17.40;34.40;;;;;;5059563;28;20025;-48
2022/03/01 11:21:05;;;;;;;12.35;7.53;;;17.40;34.30;;;;;;5057894;28;20017;-41
2022/03/01 11:23:31;;;;;;;13.20;7.20;;;17.40;34.30;;;;;;5056325;28;20017;-39
2022/03/01 11:26:09;;;;;;;14.82;7.22;;;17.50;34.40;;;;;;5040014;28;20021;-39
2022/03/01 11:28:40;;;;;;;11.80;7.47;;;17.50;34.40;;;;;;5057138;28;20020;-42
2022/03/01 11:31:18;;;;;;;15.73;7.90;;;17.50;34.40;;;;;;5056618;28;20097;-40
2022/03/01 11:33:55;;;;;;;12.63;7.60;;;17.50;34.30;;;;;;5056235;28;20013;-40
2022/03/01 11:36:21;;;;;;;13.23;7.10;;;17.60;34.30;;;;;;5056043;28;20483;-41
2022/03/01 11:38:48;;;;;;;11.00;7.15;;;17.60;34.30;;;;;;5057626;28;20049;-40
2022/03/01 11:41:20;;;;;;;16.77;7.30;;;17.60;34.30;;;;;;5056358;28;20384;-40
2022/03/01 11:43:55;;;;;;;13.15;7.30;;;17.60;34.20;;;;;;5056419;28;20053;-39
2022/03/01 11:46:22;;;;;;;14.05;7.13;;;17.60;34.10;;;;;;5054900;28;20021;-43
2022/03/01 11:48:56;;;;;;;10.38;6.57;;;17.70;34.00;;;;;;5055990;28;20083;-40
2022/03/01 11:51:36;;;;;;;12.70;7.05;;;17.70;34.00;;;;;;5056252;28;20052;-39
2022/03/01 11:54:06;;;;;;;16.33;7.03;;;17.80;33.90;;;;;;5056419;28;20048;-42
2022/03/01 11:56:33;;;;;;;11.07;6.85;;;17.80;33.90;;;;;;5056649;28;20025;-41
2022/03/01 11:59:05;;;;;;;14.00;7.10;;;17.80;33.90;;;;;;5055773;28;20020;-41
2022/03/01 12:01:32;;;;;;;19.60;7.32;;;17.80;33.90;;;;;;5055820;28;20020;-40
2022/03/01 12:04:03;;;;;;;13.45;7.97;;;17.80;33.90;;;;;;5057243;28;20021;-40
2022/03/01 12:06:30;;;;;;;12.50;7.30;;;17.80;33.90;;;;;;5056100;28;20036;-40
2022/03/01 12:09:00;;;;;;;11.30;6.68;;;17.80;34.00;;;;;;5055630;28;20020;-41
2022/03/01 12:11:32;;;;;;;15.60;7.47;;;17.80;34.00;;;;;;5057071;28;20016;-43
2022/03/01 12:14:02;;;;;;;13.52;6.97;;;17.80;34.00;;;;;;5058023;28;20764;-41
2022/03/01 12:16:28;;;;;;;12.25;7.13;;;17.80;34.00;;;;;;5057421;28;20017;-42
2022/03/01 12:19:04;;;;;;;13.30;7.38;;;17.80;34.00;;;;;;5056262;28;20024;-43
2022/03/01 12:21:31;;;;;;;11.30;7.15;;;17.80;34.00;;;;;;5058019;28;20028;-43
2022/03/01 12:23:56;;;;;;;12.75;6.82;;;17.80;34.20;;;;;;5058855;28;20017;-42
2022/03/01 12:26:22;;;;;;;12.65;7.00;;;17.70;34.10;;;;;;5056886;28;20021;-40
2022/03/01 12:28:50;;;;;;;11.25;7.28;;;17.80;34.20;;;;;;5055223;28;20020;-41
2022/03/01 12:31:22;;;;;;;12.32;6.78;;;17.80;34.20;;;;;;5055940;28;20036;-40
2022/03/01 12:34:01;;;;;;;11.77;6.32;;;17.70;34.20;;;;;;5056054;28;20009;-39
2022/03/01 12:36:27;;;;;;;10.98;6.47;;;17.70;34.30;;;;;;5054332;28;20013;-40
2022/03/01 12:39:01;;;;;;;11.55;6.53;;;17.70;34.30;;;;;;5054830;28;20036;-39
2022/03/01 12:41:28;;;;;;;10.55;6.72;;;17.70;34.40;;;;;;5057646;28;20491;-41
2022/03/01 12:43:58;;;;;;;11.30;6.78;;;17.70;34.40;;;;;;5057250;28;20033;-39